sensor_id;sensor_type;location;lat;lon;timestamp;temperature;humidity
26099;DHT22;13860;52.370;6.764;2023-01-20T00:00:34;2.90;85.90
26099;DHT22;13860;52.370;6.764;2023-01-20T00:03:38;2.90;85.90
26099;DHT22;13860;52.370;6.764;2023-01-20T00:06:40;2.90;85.90
26099;DHT22;13860;52.370;6.764;2023-01-20T00:09:44;2.90;85.90
26099;DHT22;13860;52.370;6.764;2023-01-20T00:12:45;2.90;85.90
26099;DHT22;13860;52.370;6.764;2023-01-20T00:15:49;3.00;86.00
26099;DHT22;13860;52.370;6.764;2023-01-20T00:18:51;3.00;86.00
26099;DHT22;13860;52.370;6.764;2023-01-20T00:21:55;2.90;85.90
26099;DHT22;13860;52.370;6.764;2023-01-20T00:24:56;2.90;85.90
26099;DHT22;13860;52.370;6.764;2023-01-20T00:28:00;2.90;85.90
26099;DHT22;13860;52.370;6.764;2023-01-20T00:31:21;2.90;86.00
26099;DHT22;13860;52.370;6.764;2023-01-20T00:34:25;2.90;86.00
26099;DHT22;13860;52.370;6.764;2023-01-20T00:37:27;2.90;85.90
26099;DHT22;13860;52.370;6.764;2023-01-20T00:40:30;2.90;86.00
26099;DHT22;13860;52.370;6.764;2023-01-20T00:43:32;2.90;86.00
26099;DHT22;13860;52.370;6.764;2023-01-20T00:46:36;2.90;86.00
26099;DHT22;13860;52.370;6.764;2023-01-20T00:49:38;2.90;86.00
26099;DHT22;13860;52.370;6.764;2023-01-20T00:52:41;2.90;86.10
26099;DHT22;13860;52.370;6.764;2023-01-20T00:55:43;2.90;86.10
26099;DHT22;13860;52.370;6.764;2023-01-20T00:58:46;2.90;86.10
26099;DHT22;13860;52.370;6.764;2023-01-20T01:01:48;2.90;86.10
26099;DHT22;13860;52.370;6.764;2023-01-20T01:04:52;2.90;86.10
26099;DHT22;13860;52.370;6.764;2023-01-20T01:07:53;2.90;86.10
26099;DHT22;13860;52.370;6.764;2023-01-20T01:10:57;2.90;86.10
26099;DHT22;13860;52.370;6.764;2023-01-20T01:13:58;2.90;86.10
26099;DHT22;13860;52.370;6.764;2023-01-20T01:17:02;2.90;86.10
26099;DHT22;13860;52.370;6.764;2023-01-20T01:20:04;2.90;86.10
26099;DHT22;13860;52.370;6.764;2023-01-20T01:23:07;2.90;86.10
26099;DHT22;13860;52.370;6.764;2023-01-20T01:26:09;2.90;86.10
26099;DHT22;13860;52.370;6.764;2023-01-20T01:29:13;2.80;86.00
26099;DHT22;13860;52.370;6.764;2023-01-20T01:32:14;2.90;86.20
26099;DHT22;13860;52.370;6.764;2023-01-20T01:35:18;2.80;86.10
26099;DHT22;13860;52.370;6.764;2023-01-20T01:38:19;2.90;86.20
26099;DHT22;13860;52.370;6.764;2023-01-20T01:41:24;2.80;86.10
26099;DHT22;13860;52.370;6.764;2023-01-20T01:44:26;2.80;86.10
26099;DHT22;13860;52.370;6.764;2023-01-20T01:47:30;2.80;86.20
26099;DHT22;13860;52.370;6.764;2023-01-20T01:50:45;2.90;86.20
26099;DHT22;13860;52.370;6.764;2023-01-20T01:54:14;2.80;86.20
26099;DHT22;13860;52.370;6.764;2023-01-20T01:57:16;2.80;86.20
26099;DHT22;13860;52.370;6.764;2023-01-20T02:00:19;2.80;86.10
26099;DHT22;13860;52.370;6.764;2023-01-20T02:03:21;2.80;86.20
26099;DHT22;13860;52.370;6.764;2023-01-20T02:06:30;2.80;86.10
26099;DHT22;13860;52.370;6.764;2023-01-20T02:09:33;2.80;86.10
26099;DHT22;13860;52.370;6.764;2023-01-20T02:12:45;2.80;86.20
26099;DHT22;13860;52.370;6.764;2023-01-20T02:15:59;2.80;86.20
26099;DHT22;13860;52.370;6.764;2023-01-20T02:22:28;2.80;86.20
26099;DHT22;13860;52.370;6.764;2023-01-20T02:32:58;2.80;86.20
26099;DHT22;13860;52.370;6.764;2023-01-20T02:36:10;2.80;86.30
26099;DHT22;13860;52.370;6.764;2023-01-20T02:39:29;2.80;86.20
26099;DHT22;13860;52.370;6.764;2023-01-20T02:42:44;2.80;86.30
26099;DHT22;13860;52.370;6.764;2023-01-20T02:46:02;2.70;86.20
26099;DHT22;13860;52.370;6.764;2023-01-20T02:52:17;2.80;86.20
26099;DHT22;13860;52.370;6.764;2023-01-20T02:55:27;2.70;86.20
26099;DHT22;13860;52.370;6.764;2023-01-20T02:58:39;2.80;86.30
26099;DHT22;13860;52.370;6.764;2023-01-20T03:01:54;2.80;86.30
26099;DHT22;13860;52.370;6.764;2023-01-20T03:05:12;2.80;86.30
26099;DHT22;13860;52.370;6.764;2023-01-20T03:08:17;2.80;86.20
26099;DHT22;13860;52.370;6.764;2023-01-20T03:11:21;2.80;86.30
26099;DHT22;13860;52.370;6.764;2023-01-20T03:14:23;2.80;86.20
26099;DHT22;13860;52.370;6.764;2023-01-20T03:17:26;2.80;86.20
26099;DHT22;13860;52.370;6.764;2023-01-20T03:20:28;2.80;86.20
26099;DHT22;13860;52.370;6.764;2023-01-20T03:23:34;2.80;86.20
26099;DHT22;13860;52.370;6.764;2023-01-20T03:26:37;2.80;86.20
26099;DHT22;13860;52.370;6.764;2023-01-20T03:29:40;2.80;86.30
26099;DHT22;13860;52.370;6.764;2023-01-20T03:32:44;2.80;86.20
26099;DHT22;13860;52.370;6.764;2023-01-20T03:35:50;2.80;86.30
26099;DHT22;13860;52.370;6.764;2023-01-20T03:38:53;2.80;86.30
26099;DHT22;13860;52.370;6.764;2023-01-20T03:42:11;2.80;86.30
26099;DHT22;13860;52.370;6.764;2023-01-20T03:48:39;2.80;86.30
26099;DHT22;13860;52.370;6.764;2023-01-20T03:52:30;2.80;86.30
26099;DHT22;13860;52.370;6.764;2023-01-20T03:55:25;2.80;86.30
26099;DHT22;13860;52.370;6.764;2023-01-20T03:58:33;2.90;86.30
26099;DHT22;13860;52.370;6.764;2023-01-20T04:01:41;2.80;86.20
26099;DHT22;13860;52.370;6.764;2023-01-20T04:04:44;2.80;86.20
26099;DHT22;13860;52.370;6.764;2023-01-20T04:07:50;2.90;86.30
26099;DHT22;13860;52.370;6.764;2023-01-20T04:10:55;2.90;86.30
26099;DHT22;13860;52.370;6.764;2023-01-20T04:14:00;2.80;86.30
26099;DHT22;13860;52.370;6.764;2023-01-20T04:17:03;2.80;86.20
26099;DHT22;13860;52.370;6.764;2023-01-20T04:20:12;2.80;86.80
26099;DHT22;13860;52.370;6.764;2023-01-20T04:23:28;2.80;86.30
26099;DHT22;13860;52.370;6.764;2023-01-20T04:26:34;2.80;86.30
26099;DHT22;13860;52.370;6.764;2023-01-20T04:29:35;2.80;86.30
26099;DHT22;13860;52.370;6.764;2023-01-20T04:32:39;2.80;86.20
26099;DHT22;13860;52.370;6.764;2023-01-20T04:35:40;2.80;86.20
26099;DHT22;13860;52.370;6.764;2023-01-20T04:38:44;2.80;86.10
26099;DHT22;13860;52.370;6.764;2023-01-20T04:41:46;2.80;86.60
26099;DHT22;13860;52.370;6.764;2023-01-20T04:44:50;2.80;86.30
26099;DHT22;13860;52.370;6.764;2023-01-20T04:47:51;2.70;86.20
26099;DHT22;13860;52.370;6.764;2023-01-20T04:50:55;2.80;86.30
26099;DHT22;13860;52.370;6.764;2023-01-20T04:53:57;2.70;86.20
26099;DHT22;13860;52.370;6.764;2023-01-20T04:57:01;2.80;86.30
26099;DHT22;13860;52.370;6.764;2023-01-20T05:00:05;2.80;86.30
26099;DHT22;13860;52.370;6.764;2023-01-20T05:03:09;2.80;86.30
26099;DHT22;13860;52.370;6.764;2023-01-20T05:06:10;2.80;86.30
26099;DHT22;13860;52.370;6.764;2023-01-20T05:09:14;2.80;86.30
26099;DHT22;13860;52.370;6.764;2023-01-20T05:12:16;2.80;86.30
26099;DHT22;13860;52.370;6.764;2023-01-20T05:15:20;2.80;86.20
26099;DHT22;13860;52.370;6.764;2023-01-20T05:18:21;2.70;85.70
26099;DHT22;13860;52.370;6.764;2023-01-20T05:21:25;2.70;86.20
26099;DHT22;13860;52.370;6.764;2023-01-20T05:24:26;2.80;86.30
26099;DHT22;13860;52.370;6.764;2023-01-20T05:27:30;2.70;86.30
26099;DHT22;13860;52.370;6.764;2023-01-20T05:30:34;2.80;86.30
26099;DHT22;13860;52.370;6.764;2023-01-20T05:33:37;2.80;86.30
26099;DHT22;13860;52.370;6.764;2023-01-20T05:36:40;2.80;86.30
26099;DHT22;13860;52.370;6.764;2023-01-20T05:39:43;2.80;86.30
26099;DHT22;13860;52.370;6.764;2023-01-20T05:42:45;2.70;86.30
26099;DHT22;13860;52.370;6.764;2023-01-20T05:45:48;2.80;86.40
26099;DHT22;13860;52.370;6.764;2023-01-20T05:48:50;2.80;86.40
26099;DHT22;13860;52.370;6.764;2023-01-20T05:51:53;2.70;86.30
26099;DHT22;13860;52.370;6.764;2023-01-20T05:54:55;2.70;86.30
26099;DHT22;13860;52.370;6.764;2023-01-20T05:58:02;2.70;86.30
26099;DHT22;13860;52.370;6.764;2023-01-20T06:01:06;2.70;86.30
26099;DHT22;13860;52.370;6.764;2023-01-20T06:04:10;2.70;86.30
26099;DHT22;13860;52.370;6.764;2023-01-20T06:07:12;2.70;86.30
26099;DHT22;13860;52.370;6.764;2023-01-20T06:10:16;2.70;86.40
26099;DHT22;13860;52.370;6.764;2023-01-20T06:13:18;2.70;86.40
26099;DHT22;13860;52.370;6.764;2023-01-20T06:16:21;2.70;86.40
26099;DHT22;13860;52.370;6.764;2023-01-20T06:19:23;2.70;86.30
26099;DHT22;13860;52.370;6.764;2023-01-20T06:22:26;2.70;86.40
26099;DHT22;13860;52.370;6.764;2023-01-20T06:25:28;2.70;86.40
26099;DHT22;13860;52.370;6.764;2023-01-20T06:28:32;2.70;86.40
26099;DHT22;13860;52.370;6.764;2023-01-20T06:31:34;2.70;86.40
26099;DHT22;13860;52.370;6.764;2023-01-20T06:34:38;2.70;86.40
26099;DHT22;13860;52.370;6.764;2023-01-20T06:37:39;2.70;86.40
26099;DHT22;13860;52.370;6.764;2023-01-20T06:40:43;2.70;86.40
26099;DHT22;13860;52.370;6.764;2023-01-20T06:43:44;2.70;86.30
26099;DHT22;13860;52.370;6.764;2023-01-20T06:46:48;2.70;86.30
26099;DHT22;13860;52.370;6.764;2023-01-20T06:49:49;2.70;86.40
26099;DHT22;13860;52.370;6.764;2023-01-20T06:52:53;2.60;86.40
26099;DHT22;13860;52.370;6.764;2023-01-20T06:55:55;2.70;86.50
26099;DHT22;13860;52.370;6.764;2023-01-20T06:58:59;2.60;86.40
26099;DHT22;13860;52.370;6.764;2023-01-20T07:02:00;2.60;86.40
26099;DHT22;13860;52.370;6.764;2023-01-20T07:05:04;2.60;86.40
26099;DHT22;13860;52.370;6.764;2023-01-20T07:08:08;2.60;87.00
26099;DHT22;13860;52.370;6.764;2023-01-20T07:11:12;2.60;86.30
26099;DHT22;13860;52.370;6.764;2023-01-20T07:14:13;2.60;86.30
26099;DHT22;13860;52.370;6.764;2023-01-20T07:17:17;2.60;86.30
26099;DHT22;13860;52.370;6.764;2023-01-20T07:20:19;2.60;86.30
26099;DHT22;13860;52.370;6.764;2023-01-20T07:23:23;2.60;86.30
26099;DHT22;13860;52.370;6.764;2023-01-20T07:26:24;2.50;86.30
26099;DHT22;13860;52.370;6.764;2023-01-20T07:29:28;2.60;86.40
26099;DHT22;13860;52.370;6.764;2023-01-20T07:32:30;2.60;86.50
26099;DHT22;13860;52.370;6.764;2023-01-20T07:35:33;2.60;86.40
26099;DHT22;13860;52.370;6.764;2023-01-20T07:38:35;2.50;86.40
26099;DHT22;13860;52.370;6.764;2023-01-20T07:41:39;2.50;86.40
26099;DHT22;13860;52.370;6.764;2023-01-20T07:44:42;2.50;86.40
26099;DHT22;13860;52.370;6.764;2023-01-20T07:47:45;2.50;86.40
26099;DHT22;13860;52.370;6.764;2023-01-20T07:50:47;2.50;86.40
26099;DHT22;13860;52.370;6.764;2023-01-20T07:53:50;2.50;86.40
26099;DHT22;13860;52.370;6.764;2023-01-20T07:56:52;2.50;86.40
26099;DHT22;13860;52.370;6.764;2023-01-20T07:59:56;2.50;86.40
26099;DHT22;13860;52.370;6.764;2023-01-20T08:02:57;2.50;86.40
26099;DHT22;13860;52.370;6.764;2023-01-20T08:06:09;2.50;86.40
26099;DHT22;13860;52.370;6.764;2023-01-20T08:09:10;2.50;86.50
26099;DHT22;13860;52.370;6.764;2023-01-20T08:12:16;2.50;86.50
26099;DHT22;13860;52.370;6.764;2023-01-20T08:15:18;2.50;86.50
26099;DHT22;13860;52.370;6.764;2023-01-20T08:18:21;2.50;86.50
26099;DHT22;13860;52.370;6.764;2023-01-20T08:21:25;2.50;86.50
26099;DHT22;13860;52.370;6.764;2023-01-20T08:24:29;2.50;86.50
26099;DHT22;13860;52.370;6.764;2023-01-20T08:27:30;2.50;86.50
26099;DHT22;13860;52.370;6.764;2023-01-20T08:30:35;2.50;86.50
26099;DHT22;13860;52.370;6.764;2023-01-20T08:33:37;2.50;86.50
26099;DHT22;13860;52.370;6.764;2023-01-20T08:36:41;2.50;86.50
26099;DHT22;13860;52.370;6.764;2023-01-20T08:39:43;2.50;86.50
26099;DHT22;13860;52.370;6.764;2023-01-20T08:42:46;2.50;86.50
26099;DHT22;13860;52.370;6.764;2023-01-20T08:45:57;2.50;86.50
26099;DHT22;13860;52.370;6.764;2023-01-20T08:49:15;2.50;86.50
26099;DHT22;13860;52.370;6.764;2023-01-20T08:52:17;2.50;86.50
26099;DHT22;13860;52.370;6.764;2023-01-20T08:55:20;2.50;86.50
26099;DHT22;13860;52.370;6.764;2023-01-20T08:58:22;2.50;86.50
26099;DHT22;13860;52.370;6.764;2023-01-20T09:01:30;2.50;86.50
26099;DHT22;13860;52.370;6.764;2023-01-20T09:04:35;2.50;86.60
26099;DHT22;13860;52.370;6.764;2023-01-20T09:07:39;2.50;87.20
26099;DHT22;13860;52.370;6.764;2023-01-20T09:10:41;2.50;86.60
26099;DHT22;13860;52.370;6.764;2023-01-20T09:13:45;2.50;86.60
26099;DHT22;13860;52.370;6.764;2023-01-20T09:16:47;2.50;86.60
26099;DHT22;13860;52.370;6.764;2023-01-20T09:19:50;2.50;86.60
26099;DHT22;13860;52.370;6.764;2023-01-20T09:22:52;2.50;86.60
26099;DHT22;13860;52.370;6.764;2023-01-20T09:25:58;2.60;86.60
26099;DHT22;13860;52.370;6.764;2023-01-20T09:29:00;2.60;86.70
26099;DHT22;13860;52.370;6.764;2023-01-20T09:32:12;2.60;86.60
26099;DHT22;13860;52.370;6.764;2023-01-20T09:35:13;2.60;86.60
26099;DHT22;13860;52.370;6.764;2023-01-20T09:38:17;2.60;86.60
26099;DHT22;13860;52.370;6.764;2023-01-20T09:41:41;2.60;86.60
26099;DHT22;13860;52.370;6.764;2023-01-20T09:45:19;2.70;86.70
26099;DHT22;13860;52.370;6.764;2023-01-20T09:48:51;2.70;86.60
26099;DHT22;13860;52.370;6.764;2023-01-20T09:52:28;2.70;86.60
26099;DHT22;13860;52.370;6.764;2023-01-20T09:55:55;2.70;86.60
26099;DHT22;13860;52.370;6.764;2023-01-20T09:59:05;2.70;86.60
26099;DHT22;13860;52.370;6.764;2023-01-20T10:02:18;2.70;86.60
26099;DHT22;13860;52.370;6.764;2023-01-20T10:05:29;2.60;86.50
26099;DHT22;13860;52.370;6.764;2023-01-20T10:08:38;2.70;86.60
26099;DHT22;13860;52.370;6.764;2023-01-20T10:12:04;2.70;86.60
26099;DHT22;13860;52.370;6.764;2023-01-20T10:15:19;2.70;86.60
26099;DHT22;13860;52.370;6.764;2023-01-20T10:18:47;2.70;86.60
26099;DHT22;13860;52.370;6.764;2023-01-20T10:22:09;2.70;86.60
26099;DHT22;13860;52.370;6.764;2023-01-20T10:28:25;2.70;86.60
26099;DHT22;13860;52.370;6.764;2023-01-20T10:31:34;2.70;86.60
26099;DHT22;13860;52.370;6.764;2023-01-20T10:34:45;2.80;86.60
26099;DHT22;13860;52.370;6.764;2023-01-20T10:37:51;2.80;86.60
26099;DHT22;13860;52.370;6.764;2023-01-20T10:40:59;2.80;86.60
26099;DHT22;13860;52.370;6.764;2023-01-20T10:44:10;2.80;86.60
26099;DHT22;13860;52.370;6.764;2023-01-20T10:47:20;2.80;86.60
26099;DHT22;13860;52.370;6.764;2023-01-20T10:57:11;2.80;86.60
26099;DHT22;13860;52.370;6.764;2023-01-20T11:00:25;2.90;86.60
26099;DHT22;13860;52.370;6.764;2023-01-20T11:03:34;2.90;86.60
26099;DHT22;13860;52.370;6.764;2023-01-20T11:06:38;2.90;86.60
26099;DHT22;13860;52.370;6.764;2023-01-20T11:09:42;2.90;86.60
26099;DHT22;13860;52.370;6.764;2023-01-20T11:12:46;2.90;86.60
26099;DHT22;13860;52.370;6.764;2023-01-20T11:15:55;2.90;86.60
26099;DHT22;13860;52.370;6.764;2023-01-20T11:19:02;2.90;86.60
26099;DHT22;13860;52.370;6.764;2023-01-20T11:22:13;3.00;86.60
26099;DHT22;13860;52.370;6.764;2023-01-20T11:25:25;3.00;86.60
26099;DHT22;13860;52.370;6.764;2023-01-20T11:28:42;3.00;87.20
26099;DHT22;13860;52.370;6.764;2023-01-20T11:31:55;3.00;86.60
26099;DHT22;13860;52.370;6.764;2023-01-20T11:35:24;3.00;86.60
26099;DHT22;13860;52.370;6.764;2023-01-20T11:38:43;3.00;86.50
26099;DHT22;13860;52.370;6.764;2023-01-20T11:41:46;3.00;86.50
26099;DHT22;13860;52.370;6.764;2023-01-20T11:44:55;3.10;86.70
26099;DHT22;13860;52.370;6.764;2023-01-20T11:48:16;3.10;86.60
26099;DHT22;13860;52.370;6.764;2023-01-20T11:51:21;3.10;86.60
26099;DHT22;13860;52.370;6.764;2023-01-20T11:54:27;3.10;86.60
26099;DHT22;13860;52.370;6.764;2023-01-20T11:57:29;3.10;86.60
26099;DHT22;13860;52.370;6.764;2023-01-20T12:00:43;3.10;86.60
26099;DHT22;13860;52.370;6.764;2023-01-20T12:03:52;3.10;86.60
26099;DHT22;13860;52.370;6.764;2023-01-20T12:07:06;3.20;86.60
26099;DHT22;13860;52.370;6.764;2023-01-20T12:13:29;3.20;86.50
26099;DHT22;13860;52.370;6.764;2023-01-20T12:17:05;3.20;86.50
26099;DHT22;13860;52.370;6.764;2023-01-20T12:20:38;3.20;86.50
26099;DHT22;13860;52.370;6.764;2023-01-20T12:24:00;3.20;86.50
26099;DHT22;13860;52.370;6.764;2023-01-20T12:27:12;3.20;86.50
26099;DHT22;13860;52.370;6.764;2023-01-20T12:30:49;3.20;86.50
26099;DHT22;13860;52.370;6.764;2023-01-20T12:34:03;3.20;86.50
26099;DHT22;13860;52.370;6.764;2023-01-20T12:37:27;3.20;86.60
26099;DHT22;13860;52.370;6.764;2023-01-20T12:40:47;3.30;86.60
26099;DHT22;13860;52.370;6.764;2023-01-20T12:50:51;3.30;86.60
26099;DHT22;13860;52.370;6.764;2023-01-20T13:01:12;3.40;86.60
26099;DHT22;13860;52.370;6.764;2023-01-20T13:08:21;3.40;86.60
26099;DHT22;13860;52.370;6.764;2023-01-20T13:15:03;3.40;86.50
26099;DHT22;13860;52.370;6.764;2023-01-20T13:21:32;3.40;86.50
26099;DHT22;13860;52.370;6.764;2023-01-20T13:24:35;3.40;86.50
26099;DHT22;13860;52.370;6.764;2023-01-20T13:27:39;3.50;86.60
26099;DHT22;13860;52.370;6.764;2023-01-20T13:30:44;3.50;86.60
26099;DHT22;13860;52.370;6.764;2023-01-20T13:33:50;3.50;87.20
26099;DHT22;13860;52.370;6.764;2023-01-20T13:43:45;3.60;86.50
26099;DHT22;13860;52.370;6.764;2023-01-20T13:46:49;3.60;86.50
26099;DHT22;13860;52.370;6.764;2023-01-20T13:49:52;3.60;86.50
26099;DHT22;13860;52.370;6.764;2023-01-20T13:55:59;3.60;86.40
26099;DHT22;13860;52.370;6.764;2023-01-20T13:59:06;3.60;86.40
26099;DHT22;13860;52.370;6.764;2023-01-20T14:02:20;3.70;86.40
26099;DHT22;13860;52.370;6.764;2023-01-20T14:05:29;3.70;86.40
26099;DHT22;13860;52.370;6.764;2023-01-20T14:08:40;3.70;86.40
26099;DHT22;13860;52.370;6.764;2023-01-20T14:11:53;3.70;86.40
26099;DHT22;13860;52.370;6.764;2023-01-20T14:14:55;3.70;86.30
26099;DHT22;13860;52.370;6.764;2023-01-20T14:17:59;3.70;86.30
26099;DHT22;13860;52.370;6.764;2023-01-20T14:21:17;3.70;86.30
26099;DHT22;13860;52.370;6.764;2023-01-20T14:24:28;3.70;86.40
26099;DHT22;13860;52.370;6.764;2023-01-20T14:27:32;3.70;86.30
26099;DHT22;13860;52.370;6.764;2023-01-20T14:30:37;3.70;86.30
26099;DHT22;13860;52.370;6.764;2023-01-20T14:33:43;3.70;86.20
26099;DHT22;13860;52.370;6.764;2023-01-20T14:36:47;3.70;86.20
26099;DHT22;13860;52.370;6.764;2023-01-20T14:39:49;3.70;86.20
26099;DHT22;13860;52.370;6.764;2023-01-20T14:43:14;3.70;86.20
26099;DHT22;13860;52.370;6.764;2023-01-20T14:46:16;3.70;86.10
26099;DHT22;13860;52.370;6.764;2023-01-20T14:49:21;3.80;86.20
26099;DHT22;13860;52.370;6.764;2023-01-20T14:52:29;3.80;86.20
26099;DHT22;13860;52.370;6.764;2023-01-20T14:55:34;3.70;86.10
26099;DHT22;13860;52.370;6.764;2023-01-20T14:58:43;3.70;86.10
26099;DHT22;13860;52.370;6.764;2023-01-20T15:01:55;3.70;86.20
26099;DHT22;13860;52.370;6.764;2023-01-20T15:05:01;3.70;86.20
26099;DHT22;13860;52.370;6.764;2023-01-20T15:08:22;3.70;86.20
26099;DHT22;13860;52.370;6.764;2023-01-20T15:11:27;3.70;86.10
26099;DHT22;13860;52.370;6.764;2023-01-20T15:14:33;3.70;86.10
26099;DHT22;13860;52.370;6.764;2023-01-20T15:21:26;3.70;86.00
26099;DHT22;13860;52.370;6.764;2023-01-20T15:24:29;3.70;86.00
26099;DHT22;13860;52.370;6.764;2023-01-20T15:27:33;3.70;86.00
26099;DHT22;13860;52.370;6.764;2023-01-20T15:30:35;3.70;86.00
26099;DHT22;13860;52.370;6.764;2023-01-20T15:33:40;3.80;86.00
26099;DHT22;13860;52.370;6.764;2023-01-20T15:36:43;3.80;86.00
26099;DHT22;13860;52.370;6.764;2023-01-20T15:39:47;3.80;85.90
26099;DHT22;13860;52.370;6.764;2023-01-20T15:42:50;3.80;85.90
26099;DHT22;13860;52.370;6.764;2023-01-20T15:45:54;3.70;85.90
26099;DHT22;13860;52.370;6.764;2023-01-20T15:48:55;3.80;85.90
26099;DHT22;13860;52.370;6.764;2023-01-20T15:51:59;3.80;85.80
26099;DHT22;13860;52.370;6.764;2023-01-20T15:55:00;3.80;85.80
26099;DHT22;13860;52.370;6.764;2023-01-20T15:58:19;3.80;85.80
26099;DHT22;13860;52.370;6.764;2023-01-20T16:01:22;3.80;85.80
26099;DHT22;13860;52.370;6.764;2023-01-20T16:04:27;3.70;85.70
26099;DHT22;13860;52.370;6.764;2023-01-20T16:07:29;3.70;85.70
26099;DHT22;13860;52.370;6.764;2023-01-20T16:10:32;3.70;85.70
26099;DHT22;13860;52.370;6.764;2023-01-20T16:13:34;3.70;85.70
26099;DHT22;13860;52.370;6.764;2023-01-20T16:16:38;3.70;85.70
26099;DHT22;13860;52.370;6.764;2023-01-20T16:19:39;3.70;85.70
26099;DHT22;13860;52.370;6.764;2023-01-20T16:22:43;3.70;85.70
26099;DHT22;13860;52.370;6.764;2023-01-20T16:25:44;3.70;85.60
26099;DHT22;13860;52.370;6.764;2023-01-20T16:28:54;3.70;85.60
26099;DHT22;13860;52.370;6.764;2023-01-20T16:31:56;3.70;85.70
26099;DHT22;13860;52.370;6.764;2023-01-20T16:35:00;3.70;85.60
26099;DHT22;13860;52.370;6.764;2023-01-20T16:38:01;3.70;85.70
26099;DHT22;13860;52.370;6.764;2023-01-20T16:41:21;3.70;85.70
26099;DHT22;13860;52.370;6.764;2023-01-20T16:44:23;3.60;85.60
26099;DHT22;13860;52.370;6.764;2023-01-20T16:47:27;3.70;85.70
26099;DHT22;13860;52.370;6.764;2023-01-20T16:50:28;3.60;85.60
26099;DHT22;13860;52.370;6.764;2023-01-20T16:53:32;3.60;85.70
26099;DHT22;13860;52.370;6.764;2023-01-20T16:56:34;3.70;85.70
26099;DHT22;13860;52.370;6.764;2023-01-20T16:59:37;3.70;85.70
26099;DHT22;13860;52.370;6.764;2023-01-20T17:02:39;3.60;85.60
26099;DHT22;13860;52.370;6.764;2023-01-20T17:05:43;3.60;85.60
26099;DHT22;13860;52.370;6.764;2023-01-20T17:08:46;3.60;85.70
26099;DHT22;13860;52.370;6.764;2023-01-20T17:11:49;3.60;85.60
26099;DHT22;13860;52.370;6.764;2023-01-20T17:14:51;3.60;85.60
26099;DHT22;13860;52.370;6.764;2023-01-20T17:17:56;3.60;85.50
26099;DHT22;13860;52.370;6.764;2023-01-20T17:21:03;3.60;85.60
26099;DHT22;13860;52.370;6.764;2023-01-20T17:24:09;3.60;85.50
26099;DHT22;13860;52.370;6.764;2023-01-20T17:27:11;3.60;85.50
26099;DHT22;13860;52.370;6.764;2023-01-20T17:30:15;3.60;85.50
26099;DHT22;13860;52.370;6.764;2023-01-20T17:33:17;3.60;85.60
26099;DHT22;13860;52.370;6.764;2023-01-20T17:36:20;3.60;85.50
26099;DHT22;13860;52.370;6.764;2023-01-20T17:39:22;3.60;85.50
26099;DHT22;13860;52.370;6.764;2023-01-20T17:42:26;3.60;85.50
26099;DHT22;13860;52.370;6.764;2023-01-20T17:45:27;3.60;85.40
26099;DHT22;13860;52.370;6.764;2023-01-20T17:48:33;3.60;85.40
26099;DHT22;13860;52.370;6.764;2023-01-20T17:51:34;3.60;85.40
26099;DHT22;13860;52.370;6.764;2023-01-20T17:54:38;3.50;85.30
26099;DHT22;13860;52.370;6.764;2023-01-20T17:57:39;3.50;85.30
26099;DHT22;13860;52.370;6.764;2023-01-20T18:00:43;3.50;85.40
26099;DHT22;13860;52.370;6.764;2023-01-20T18:03:45;3.50;85.40
26099;DHT22;13860;52.370;6.764;2023-01-20T18:06:49;3.50;85.30
26099;DHT22;13860;52.370;6.764;2023-01-20T18:09:51;3.50;85.40
26099;DHT22;13860;52.370;6.764;2023-01-20T18:12:54;3.50;85.30
26099;DHT22;13860;52.370;6.764;2023-01-20T18:15:56;3.50;85.20
26099;DHT22;13860;52.370;6.764;2023-01-20T18:19:00;3.50;85.30
26099;DHT22;13860;52.370;6.764;2023-01-20T18:22:01;3.50;85.30
26099;DHT22;13860;52.370;6.764;2023-01-20T18:25:09;3.50;85.30
26099;DHT22;13860;52.370;6.764;2023-01-20T18:28:10;3.50;85.30
26099;DHT22;13860;52.370;6.764;2023-01-20T18:31:18;3.50;85.20
26099;DHT22;13860;52.370;6.764;2023-01-20T18:34:20;3.50;85.10
26099;DHT22;13860;52.370;6.764;2023-01-20T18:37:24;3.50;85.10
26099;DHT22;13860;52.370;6.764;2023-01-20T18:40:25;3.50;85.10
26099;DHT22;13860;52.370;6.764;2023-01-20T18:43:29;3.50;85.00
26099;DHT22;13860;52.370;6.764;2023-01-20T18:46:31;3.50;85.00
26099;DHT22;13860;52.370;6.764;2023-01-20T18:49:35;3.50;85.00
26099;DHT22;13860;52.370;6.764;2023-01-20T18:52:36;3.50;85.00
26099;DHT22;13860;52.370;6.764;2023-01-20T18:55:40;3.50;85.00
26099;DHT22;13860;52.370;6.764;2023-01-20T18:58:42;3.50;84.80
26099;DHT22;13860;52.370;6.764;2023-01-20T19:01:49;3.50;84.80
26099;DHT22;13860;52.370;6.764;2023-01-20T19:04:51;3.40;84.70
26099;DHT22;13860;52.370;6.764;2023-01-20T19:07:54;3.40;84.70
26099;DHT22;13860;52.370;6.764;2023-01-20T19:11:00;3.40;84.70
26099;DHT22;13860;52.370;6.764;2023-01-20T19:14:06;3.40;84.70
26099;DHT22;13860;52.370;6.764;2023-01-20T19:17:08;3.30;84.70
26099;DHT22;13860;52.370;6.764;2023-01-20T19:20:11;3.30;84.70
26099;DHT22;13860;52.370;6.764;2023-01-20T19:23:13;3.30;84.70
26099;DHT22;13860;52.370;6.764;2023-01-20T19:26:17;3.30;84.70
26099;DHT22;13860;52.370;6.764;2023-01-20T19:29:19;3.20;84.70
26099;DHT22;13860;52.370;6.764;2023-01-20T19:32:22;3.20;84.60
26099;DHT22;13860;52.370;6.764;2023-01-20T19:35:24;3.20;84.70
26099;DHT22;13860;52.370;6.764;2023-01-20T19:38:27;3.20;84.60
26099;DHT22;13860;52.370;6.764;2023-01-20T19:41:30;3.20;84.60
26099;DHT22;13860;52.370;6.764;2023-01-20T19:44:38;3.10;84.60
26099;DHT22;13860;52.370;6.764;2023-01-20T19:47:39;3.10;84.60
26099;DHT22;13860;52.370;6.764;2023-01-20T19:50:43;3.00;84.50
26099;DHT22;13860;52.370;6.764;2023-01-20T19:53:45;3.00;84.50
26099;DHT22;13860;52.370;6.764;2023-01-20T19:56:49;3.00;84.50
26099;DHT22;13860;52.370;6.764;2023-01-20T19:59:50;2.90;84.50
26099;DHT22;13860;52.370;6.764;2023-01-20T20:02:53;2.90;84.50
26099;DHT22;13860;52.370;6.764;2023-01-20T20:05:55;2.90;84.60
26099;DHT22;13860;52.370;6.764;2023-01-20T20:09:05;2.90;84.50
26099;DHT22;13860;52.370;6.764;2023-01-20T20:12:07;2.80;84.50
26099;DHT22;13860;52.370;6.764;2023-01-20T20:15:10;2.80;84.50
26099;DHT22;13860;52.370;6.764;2023-01-20T20:18:12;2.80;84.50
26099;DHT22;13860;52.370;6.764;2023-01-20T20:21:16;2.80;84.50
26099;DHT22;13860;52.370;6.764;2023-01-20T20:24:18;2.70;84.50
26099;DHT22;13860;52.370;6.764;2023-01-20T20:27:22;2.70;84.50
26099;DHT22;13860;52.370;6.764;2023-01-20T20:30:23;2.70;84.50
26099;DHT22;13860;52.370;6.764;2023-01-20T20:33:27;2.60;84.50
26099;DHT22;13860;52.370;6.764;2023-01-20T20:36:29;2.60;84.50
26099;DHT22;13860;52.370;6.764;2023-01-20T20:39:34;2.50;84.40
26099;DHT22;13860;52.370;6.764;2023-01-20T20:42:36;2.50;84.40
26099;DHT22;13860;52.370;6.764;2023-01-20T20:45:39;2.50;84.40
26099;DHT22;13860;52.370;6.764;2023-01-20T20:48:41;2.50;84.40
26099;DHT22;13860;52.370;6.764;2023-01-20T20:51:45;2.40;84.40
26099;DHT22;13860;52.370;6.764;2023-01-20T20:54:47;2.40;84.40
26099;DHT22;13860;52.370;6.764;2023-01-20T20:57:51;2.40;84.40
26099;DHT22;13860;52.370;6.764;2023-01-20T21:00:53;2.30;84.40